Time;durP1;ratioP1;P1;durP2;ratioP2;P2;SDS_P1;SDS_P2;PMS_P1;PMS_P2;Temp;Humidity;BMP_temperature;BMP_pressure;BME280_temperature;BME280_humidity;BME280_pressure;Samples;Min_cycle;Max_cycle;Signal;HPM_P1;HPM_P2
2022/03/22 00:00:07;;;;;;;;;;;;;;;6.02;100.00;100274.84;5093269;28;19924;-81
2022/03/22 00:02:38;;;;;;;;;;;;;;;5.68;100.00;100266.53;5093086;28;19924;-81
2022/03/22 00:05:13;;;;;;;;;;;;;;;5.62;100.00;100271.53;5077120;28;20379;-81
2022/03/22 00:07:40;;;;;;;;;;;;;;;5.79;100.00;100276.69;5092733;28;19966;-81
2022/03/22 00:10:08;;;;;;;;;;;;;;;5.84;100.00;100261.75;5092852;28;19932;-82
2022/03/22 00:12:36;;;;;;;;;;;;;;;5.87;100.00;100259.06;5093116;28;20303;-81
2022/03/22 00:15:04;;;;;;;;;;;;;;;5.81;100.00;100268.00;5092892;28;20023;-82
2022/03/22 00:17:52;;;;;;;;;;;;;;;5.62;100.00;100267.97;5094181;28;19947;-81
2022/03/22 00:20:19;;;;;;;;;;;;;;;5.74;100.00;100274.19;5076531;28;19993;-82
2022/03/22 00:22:48;;;;;;;;;;;;;;;5.81;100.00;100270.78;5094302;28;19924;-82
2022/03/22 00:25:18;;;;;;;;;;;;;;;5.78;100.00;100269.53;5093000;28;19924;-81
2022/03/22 00:27:55;;;;;;;;;;;;;;;5.71;100.00;100266.59;5094255;28;19924;-82
2022/03/22 00:30:22;;;;;;;;;;;;;;;5.91;100.00;100273.81;5076388;28;19928;-82
2022/03/22 00:32:53;;;;;;;;;;;;;;;6.03;100.00;100275.66;5093014;28;19924;-82
2022/03/22 00:35:25;;;;;;;;;;;;;;;6.11;100.00;100266.31;5076625;28;19931;-82
2022/03/22 00:37:56;;;;;;;;;;;;;;;5.85;100.00;100269.72;5059922;28;19924;-82
2022/03/22 00:40:24;;;;;;;;;;;;;;;5.93;100.00;100265.94;5076238;28;20034;-82
2022/03/22 00:42:53;;;;;;;;;;;;;;;5.94;100.00;100270.31;5059774;28;20359;-82
2022/03/22 00:45:22;;;;;;;;;;;;;;;5.68;100.00;100269.31;5094052;28;20332;-82
2022/03/22 00:47:51;;;;;;;;;;;;;;;5.79;100.00;100262.00;5094112;28;19924;-82
2022/03/22 00:50:19;;;;;;;;;;;;;;;5.79;100.00;100265.59;5092624;28;20408;-82
2022/03/22 00:52:46;;;;;;;;;;;;;;;5.73;100.00;100260.69;5094060;28;19957;-82
2022/03/22 00:55:16;;;;;;;;;;;;;;;5.75;100.00;100266.69;5076162;28;19935;-82
2022/03/22 00:57:44;;;;;;;;;;;;;;;5.76;100.00;100265.50;5092835;28;20332;-82
2022/03/22 01:00:12;;;;;;;;;;;;;;;5.63;100.00;100266.81;5092823;28;19931;-82
2022/03/22 01:02:49;;;;;;;;;;;;;;;5.68;100.00;100266.53;5096206;28;19930;-82
2022/03/22 01:05:19;;;;;;;;;;;;;;;5.64;100.00;100272.00;5097527;28;19963;-82
2022/03/22 01:07:48;;;;;;;;;;;;;;;5.48;100.00;100269.25;5096374;28;20358;-82
2022/03/22 01:10:16;;;;;;;;;;;;;;;5.50;100.00;100269.69;5096452;28;19959;-81
2022/03/22 01:12:44;;;;;;;;;;;;;;;5.63;100.00;100275.94;5097633;28;20006;-82
2022/03/22 01:15:16;;;;;;;;;;;;;;;5.73;100.00;100264.28;5095962;28;20023;-82
2022/03/22 01:17:43;;;;;;;;;;;;;;;5.75;100.00;100263.91;5096336;28;19930;-82
2022/03/22 01:20:10;;;;;;;;;;;;;;;5.72;100.00;100270.19;5113369;28;20347;-82
2022/03/22 01:22:38;;;;;;;;;;;;;;;5.62;100.00;100262.44;5079349;28;20011;-82
2022/03/22 01:25:07;;;;;;;;;;;;;;;5.67;100.00;100267.69;5079478;28;20014;-82
2022/03/22 01:27:35;;;;;;;;;;;;;;;5.65;100.00;100270.03;5094592;28;19934;-82
2022/03/22 01:30:05;;;;;;;;;;;;;;;5.62;100.00;100259.66;5097362;28;20479;-82
2022/03/22 01:32:33;;;;;;;;;;;;;;;5.24;100.00;100263.13;5097084;28;19962;-82
2022/03/22 01:35:01;;;;;;;;;;;;;;;5.58;100.00;100254.84;5062341;28;19931;-82
2022/03/22 01:37:29;;;;;;;;;;;;;;;5.63;100.00;100251.00;5079170;28;20371;-82
2022/03/22 01:39:57;;;;;;;;;;;;;;;5.65;100.00;100242.31;5097051;28;19928;-82
2022/03/22 01:42:24;;;;;;;;;;;;;;;5.42;100.00;100256.03;5062532;28;19931;-82
2022/03/22 01:44:52;;;;;;;;;;;;;;;5.55;100.00;100249.22;5079067;28;19926;-82
2022/03/22 01:47:20;;;;;;;;;;;;;;;5.22;100.00;100262.69;5095403;28;20007;-82
2022/03/22 01:49:47;;;;;;;;;;;;;;;5.63;100.00;100246.22;5078981;28;19924;-82
2022/03/22 01:52:15;;;;;;;;;;;;;;;5.28;100.00;100255.69;5096999;28;19928;-82
2022/03/22 01:54:42;;;;;;;;;;;;;;;5.15;100.00;100252.22;5078952;28;19924;-82
2022/03/22 01:57:09;;;;;;;;;;;;;;;5.59;100.00;100239.81;5096587;28;19924;-82
2022/03/22 01:59:36;;;;;;;;;;;;;;;5.69;100.00;100248.72;5096452;28;20359;-82
2022/03/22 02:07:37;;;;;;;;;;;;;;;5.34;100.00;100251.50;5096574;28;19959;-82
2022/03/22 02:10:04;;;;;;;;;;;;;;;5.66;100.00;100249.44;5095153;28;19924;-82
2022/03/22 02:12:33;;;;;;;;;;;;;;;5.90;100.00;100254.75;5111988;28;19955;-82
2022/03/22 02:15:00;;;;;;;;;;;;;;;5.80;100.00;100244.22;5094794;28;20340;-83
2022/03/22 02:17:27;;;;;;;;;;;;;;;5.63;100.00;100241.84;5078255;28;19985;-82
2022/03/22 02:19:55;;;;;;;;;;;;;;;5.94;100.00;100247.34;5095151;28;19935;-83
2022/03/22 02:22:28;;;;;;;;;;;;;;;6.11;100.00;100244.09;5095117;28;19924;-82
2022/03/22 02:24:55;;;;;;;;;;;;;;;5.96;100.00;100242.22;5095240;28;20369;-82
2022/03/22 02:27:25;;;;;;;;;;;;;;;5.74;100.00;100240.91;5078213;28;19924;-82
2022/03/22 02:29:52;;;;;;;;;;;;;;;6.01;100.00;100241.94;5094827;28;20294;-83
2022/03/22 02:32:23;;;;;;;;;;;;;;;6.09;100.00;100236.16;5077904;28;19932;-83
2022/03/22 02:34:50;;;;;;;;;;;;;;;6.29;100.00;100240.53;5096310;28;19977;-83
2022/03/22 02:37:18;;;;;;;;;;;;;;;5.64;100.00;100241.50;5077919;28;19931;-83
2022/03/22 02:39:45;;;;;;;;;;;;;;;5.53;100.00;100238.47;5078026;28;20329;-82
2022/03/22 02:42:12;;;;;;;;;;;;;;;5.78;100.00;100241.00;5111838;28;19947;-82
2022/03/22 02:44:39;;;;;;;;;;;;;;;5.43;100.00;100247.38;5095095;28;19932;-83
2022/03/22 02:47:06;;;;;;;;;;;;;;;5.94;100.00;100247.34;5077124;28;19956;-82
2022/03/22 02:49:34;;;;;;;;;;;;;;;5.88;100.00;100240.47;5094883;28;19935;-82
2022/03/22 02:52:01;;;;;;;;;;;;;;;5.92;100.00;100241.34;5094765;28;19947;-83
2022/03/22 02:54:29;;;;;;;;;;;;;;;6.27;100.00;100236.50;5094385;28;20325;-83
2022/03/22 02:56:56;;;;;;;;;;;;;;;6.44;100.00;100241.59;5091526;28;21757;-83
2022/03/22 02:59:23;;;;;;;;;;;;;;;6.47;100.00;100238.06;5057240;28;20445;-83
2022/03/22 03:01:51;;;;;;;;;;;;;;;6.31;100.00;100231.81;5057308;28;19924;-83
2022/03/22 03:04:18;;;;;;;;;;;;;;;6.51;100.00;100236.97;5075280;28;20321;-82
2022/03/22 03:06:45;;;;;;;;;;;;;;;6.47;100.00;100240.84;5057388;28;19982;-82
2022/03/22 03:09:13;;;;;;;;;;;;;;;6.49;100.00;100228.22;5075286;28;20390;-82
2022/03/22 03:11:41;;;;;;;;;;;;;;;6.55;100.00;100237.03;5075029;28;20393;-82
2022/03/22 03:16:54;;;;;;;;;;;;;;;5.68;100.00;100244.34;5072253;28;20405;-82
2022/03/22 03:19:22;;;;;;;;;;;;;;;6.26;100.00;100241.25;5056620;28;19931;-82
2022/03/22 03:21:49;;;;;;;;;;;;;;;6.46;100.00;100233.69;5073145;28;19924;-83
2022/03/22 03:24:17;;;;;;;;;;;;;;;6.54;100.00;100235.44;5073750;28;19925;-83
2022/03/22 03:26:44;;;;;;;;;;;;;;;6.57;100.00;100229.16;5074371;28;19929;-83
2022/03/22 03:29:11;;;;;;;;;;;;;;;6.65;100.00;100228.91;5074300;28;20431;-83
2022/03/22 03:31:38;;;;;;;;;;;;;;;6.57;100.00;100237.47;5074909;28;20366;-83
2022/03/22 03:34:05;;;;;;;;;;;;;;;6.61;100.00;100232.78;5073338;28;19928;-83
2022/03/22 03:36:32;;;;;;;;;;;;;;;6.78;100.00;100229.53;5073394;28;20332;-83
2022/03/22 03:39:01;;;;;;;;;;;;;;;6.80;100.00;100229.97;5074763;28;19948;-83
2022/03/22 03:47:11;;;;;;;;;;;;;;;6.40;100.00;100233.22;5074909;28;20348;-83
2022/03/22 03:49:45;;;;;;;;;;;;;;;6.44;100.00;100236.03;5056855;28;19974;-83
2022/03/22 03:52:17;;;;;;;;;;;;;;;6.66;100.00;100232.50;5057026;28;19946;-83
2022/03/22 03:54:45;;;;;;;;;;;;;;;6.74;100.00;100234.25;5073339;28;20019;-83
2022/03/22 03:57:13;;;;;;;;;;;;;;;6.76;100.00;100237.44;5074476;28;19990;-83
2022/03/22 03:59:40;;;;;;;;;;;;;;;6.49;100.00;100233.78;5073276;28;19924;-83
2022/03/22 04:02:08;;;;;;;;;;;;;;;6.47;100.00;100236.09;5073267;28;19924;-83
2022/03/22 04:04:36;;;;;;;;;;;;;;;6.49;100.00;100232.97;5056590;28;19931;-83
2022/03/22 04:07:05;;;;;;;;;;;;;;;6.40;100.00;100238.75;5056677;28;19928;-83
2022/03/22 04:09:33;;;;;;;;;;;;;;;6.26;100.00;100232.94;5074255;28;20417;-83
2022/03/22 04:12:03;;;;;;;;;;;;;;;6.61;100.00;100241.13;5056315;28;20066;-83
2022/03/22 04:14:30;;;;;;;;;;;;;;;6.74;100.00;100245.34;5072844;28;20443;-83
2022/03/22 04:16:57;;;;;;;;;;;;;;;6.75;100.00;100231.09;5072984;28;19932;-83
2022/03/22 04:19:26;;;;;;;;;;;;;;;6.84;100.00;100234.41;5073092;28;19942;-83
2022/03/22 04:21:53;;;;;;;;;;;;;;;6.90;100.00;100237.69;5073263;28;19924;-83
2022/03/22 04:24:20;;;;;;;;;;;;;;;6.94;100.00;100228.22;5040189;28;19925;-83
2022/03/22 04:26:48;;;;;;;;;;;;;;;6.98;100.00;100231.09;5073613;28;20385;-83
2022/03/22 04:34:47;;;;;;;;;;;;;;;6.73;100.00;100243.72;5074445;28;19924;-83
2022/03/22 04:37:15;;;;;;;;;;;;;;;6.74;100.00;100245.34;5058008;28;19947;-83
2022/03/22 04:39:46;;;;;;;;;;;;;;;6.59;100.00;100246.22;5060564;28;20267;-83
2022/03/22 04:42:14;;;;;;;;;;;;;;;6.69;100.00;100237.31;5076377;28;19924;-83
2022/03/22 04:44:42;;;;;;;;;;;;;;;6.70;100.00;100244.47;5059962;28;20436;-83
2022/03/22 04:47:09;;;;;;;;;;;;;;;6.91;100.00;100242.06;5059995;28;19974;-83
2022/03/22 04:49:36;;;;;;;;;;;;;;;6.94;100.00;100250.47;5060206;28;19932;-83
2022/03/22 04:57:35;;;;;;;;;;;;;;;6.92;100.00;100249.25;5077212;28;19928;-83
2022/03/22 05:00:03;;;;;;;;;;;;;;;7.05;100.00;100245.09;5077847;28;20011;-83
2022/03/22 05:02:31;;;;;;;;;;;;;;;7.01;100.00;100245.00;5043262;28;19924;-83
2022/03/22 05:05:00;;;;;;;;;;;;;;;6.44;100.00;100253.50;5059555;28;19924;-83
2022/03/22 05:07:29;;;;;;;;;;;;;;;6.78;100.00;100257.31;5059507;28;19970;-83
2022/03/22 05:09:56;;;;;;;;;;;;;;;6.89;100.00;100247.19;5059443;28;19924;-83
2022/03/22 05:12:23;;;;;;;;;;;;;;;6.93;100.00;100248.06;5059727;28;20586;-83
2022/03/22 05:14:51;;;;;;;;;;;;;;;6.97;100.00;100246.94;5076060;28;19965;-83
2022/03/22 05:17:21;;;;;;;;;;;;;;;6.75;100.00;100249.72;5076413;28;19948;-83
2022/03/22 05:19:50;;;;;;;;;;;;;;;6.62;100.00;100257.41;5059618;28;19924;-83
2022/03/22 05:22:20;;;;;;;;;;;;;;;6.80;100.00;100246.66;5076163;28;20378;-83
2022/03/22 05:24:47;;;;;;;;;;;;;;;6.84;100.00;100255.84;5059521;28;19940;-83
2022/03/22 05:27:15;;;;;;;;;;;;;;;6.42;100.00;100247.50;5059445;28;19931;-83
2022/03/22 05:29:42;;;;;;;;;;;;;;;6.70;100.00;100253.59;5095249;28;19950;-83
2022/03/22 05:32:09;;;;;;;;;;;;;;;6.63;100.00;100252.66;5063874;28;19928;-83
2022/03/22 05:34:37;;;;;;;;;;;;;;;6.71;100.00;100260.75;5076893;28;19924;-83
2022/03/22 05:37:04;;;;;;;;;;;;;;;6.62;100.00;100254.63;5059531;28;19931;-83
2022/03/22 05:39:31;;;;;;;;;;;;;;;6.63;100.00;100261.00;5075542;28;19928;-83
2022/03/22 05:41:58;;;;;;;;;;;;;;;6.55;100.00;100260.06;5059208;28;19925;-83
2022/03/22 05:44:25;;;;;;;;;;;;;;;6.46;100.00;100261.47;5077262;28;19929;-83
2022/03/22 05:46:55;;;;;;;;;;;;;;;6.51;100.00;100258.41;5079530;28;20010;-83
2022/03/22 05:49:22;;;;;;;;;;;;;;;6.69;100.00;100259.53;5078750;28;19924;-83
2022/03/22 05:51:49;;;;;;;;;;;;;;;6.63;100.00;100266.56;5078975;28;19928;-83
2022/03/22 05:54:17;;;;;;;;;;;;;;;6.34;100.00;100273.53;5095602;28;19966;-83
2022/03/22 05:56:44;;;;;;;;;;;;;;;6.57;100.00;100273.59;5096952;28;19924;-83
2022/03/22 05:59:11;;;;;;;;;;;;;;;6.58;100.00;100269.63;5095729;28;19924;-83
2022/03/22 06:01:39;;;;;;;;;;;;;;;6.30;100.00;100269.09;5078780;28;19935;-83
2022/03/22 06:04:07;;;;;;;;;;;;;;;6.24;100.00;100267.78;5062851;28;19924;-83
2022/03/22 06:06:35;;;;;;;;;;;;;;;6.36;100.00;100275.94;5078608;28;19924;-82
2022/03/22 06:09:02;;;;;;;;;;;;;;;6.40;100.00;100282.38;5095564;28;19962;-83
2022/03/22 06:11:34;;;;;;;;;;;;;;;6.29;100.00;100273.00;5096352;28;19973;-83
2022/03/22 06:14:03;;;;;;;;;;;;;;;6.09;100.00;100280.53;5078963;28;19952;-83
2022/03/22 06:16:31;;;;;;;;;;;;;;;6.09;100.00;100276.97;5095240;28;20363;-83
2022/03/22 06:18:58;;;;;;;;;;;;;;;5.89;100.00;100281.72;5095052;28;19967;-83
2022/03/22 06:21:26;;;;;;;;;;;;;;;6.09;100.00;100285.31;5096594;28;19975;-83
2022/03/22 06:23:55;;;;;;;;;;;;;;;6.07;100.00;100280.13;5078566;28;19924;-83
2022/03/22 06:26:22;;;;;;;;;;;;;;;6.18;100.00;100294.22;5129092;27;19924;-82
2022/03/22 06:28:49;;;;;;;;;;;;;;;5.84;100.00;100287.53;5078684;28;20456;-82
2022/03/22 06:31:17;;;;;;;;;;;;;;;5.46;100.00;100293.78;5078557;28;19924;-82
2022/03/22 06:33:43;;;;;;;;;;;;;;;5.96;100.00;100292.16;5094938;28;19924;-83
2022/03/22 06:36:10;;;;;;;;;;;;;;;6.19;100.00;100290.25;5094754;28;19924;-83
2022/03/22 06:38:39;;;;;;;;;;;;;;;6.30;100.00;100291.28;5094676;28;19931;-83
2022/03/22 06:41:06;;;;;;;;;;;;;;;5.13;100.00;100295.31;5096400;28;20019;-82
2022/03/22 06:43:33;;;;;;;;;;;;;;;5.83;100.00;100304.53;5095731;28;19928;-80
2022/03/22 06:46:00;;;;;;;;;;;;;;;6.17;100.00;100303.69;5077763;28;19931;-80
2022/03/22 06:48:27;;;;;;;;;;;;;;;6.24;100.00;100304.66;5095819;28;19924;-80
2022/03/22 06:50:54;;;;;;;;;;;;;;;6.40;100.00;100301.81;5077379;28;19925;-80
2022/03/22 06:53:21;;;;;;;;;;;;;;;6.53;100.00;100306.03;5095088;28;20125;-83
2022/03/22 06:55:51;;;;;;;;;;;;;;;6.53;100.00;100306.03;5093608;28;19931;-79
2022/03/22 06:58:22;;;;;;;;;;;;;;;6.55;100.00;100310.06;5093478;28;20023;-77
2022/03/22 07:00:49;;;;;;;;;;;;;;;7.03;100.00;100300.22;5082345;28;19929;-77
2022/03/22 07:03:17;;;;;;;;;;;;;;;7.34;100.00;100305.53;5069543;28;20015;-78
2022/03/22 07:05:47;;;;;;;;;;;;;;;7.58;100.00;100305.13;5069862;28;20339;-78
2022/03/22 07:08:14;;;;;;;;;;;;;;;7.85;100.00;100301.16;5069594;28;19928;-77
2022/03/22 07:11:47;;;;;;;;;;;;;;;8.01;100.00;100304.56;5070612;28;19924;-77
2022/03/22 07:13:32;;;;;;;;;;;;;;;7.80;100.00;100295.91;5070598;28;19928;-77
2022/03/22 07:16:00;;;;;;;;;;;;;;;7.81;100.00;100299.50;5069263;28;19924;-77
2022/03/22 07:18:28;;;;;;;;;;;;;;;7.36;100.00;100300.41;5070939;28;19974;-77
2022/03/22 07:20:55;;;;;;;;;;;;;;;7.57;100.00;100297.97;5070386;28;19952;-77
2022/03/22 07:23:22;;;;;;;;;;;;;;;7.60;100.00;100293.63;5067331;28;19990;-77
2022/03/22 07:25:50;;;;;;;;;;;;;;;7.17;100.00;100306.03;5088908;28;19924;-77
2022/03/22 07:28:17;;;;;;;;;;;;;;;7.41;100.00;100302.88;5072612;28;19929;-77
2022/03/22 07:30:44;;;;;;;;;;;;;;;7.28;100.00;100315.38;5069690;28;20023;-77
2022/03/22 07:33:11;;;;;;;;;;;;;;;6.74;100.00;100309.25;5070502;28;19925;-76
2022/03/22 07:35:38;;;;;;;;;;;;;;;7.10;100.00;100315.03;5070092;28;19928;-76
2022/03/22 07:38:05;;;;;;;;;;;;;;;7.23;100.00;100315.66;5068936;28;20005;-76
2022/03/22 07:40:33;;;;;;;;;;;;;;;7.48;100.00;100324.44;5069559;28;19960;-76
2022/03/22 07:43:00;;;;;;;;;;;;;;;7.91;100.00;100315.53;5070105;28;19925;-77
2022/03/22 07:45:27;;;;;;;;;;;;;;;7.52;100.00;100317.75;5070079;28;19929;-76
2022/03/22 07:47:54;;;;;;;;;;;;;;;7.84;100.00;100310.69;5071251;28;19925;-76
2022/03/22 07:53:10;;;;;;;;;;;;;;;8.07;100.00;100319.78;5069245;28;19929;-76
2022/03/22 07:55:39;;;;;;;;;;;;;;;8.37;100.00;100312.25;5083197;28;19924;-77
2022/03/22 07:58:07;;;;;;;;;;;;;;;8.62;100.00;100315.31;5090565;28;20370;-77
2022/03/22 08:00:35;;;;;;;;;;;;;;;8.90;100.00;100313.66;5090117;28;19931;-78
2022/03/22 08:03:03;;;;;;;;;;;;;;;9.18;100.00;100313.94;5088871;28;19939;-77
2022/03/22 08:05:31;;;;;;;;;;;;;;;9.45;100.00;100317.34;5090320;28;20289;-77
2022/03/22 08:07:59;;;;;;;;;;;;;;;9.73;100.00;100317.56;5088546;28;20290;-77
2022/03/22 08:10:34;;;;;;;;;;;;;;;10.08;100.00;100317.03;5073127;28;19978;-78
2022/03/22 08:13:02;;;;;;;;;;;;;;;10.42;100.00;100310.03;5051959;28;19930;-77
2022/03/22 08:15:29;;;;;;;;;;;;;;;10.82;100.00;100318.97;5067497;28;19925;-77
2022/03/22 08:17:57;;;;;;;;;;;;;;;11.23;100.00;100316.66;5066963;28;19990;-78
2022/03/22 08:20:28;;;;;;;;;;;;;;;11.62;100.00;100306.28;5069212;28;19987;-78
2022/03/22 08:22:59;;;;;;;;;;;;;;;12.02;100.00;100305.03;5069862;28;19952;-79
2022/03/22 08:25:29;;;;;;;;;;;;;;;12.47;100.00;100307.69;5066969;28;19931;-78
2022/03/22 08:27:57;;;;;;;;;;;;;;;13.18;100.00;100301.72;5086537;28;19924;-78
2022/03/22 08:30:25;;;;;;;;;;;;;;;13.50;100.00;100291.84;5089813;28;19930;-77
2022/03/22 08:32:54;;;;;;;;;;;;;;;14.11;100.00;100295.69;5088783;28;19924;-78
2022/03/22 08:35:23;;;;;;;;;;;;;;;14.46;100.00;100298.91;5088840;28;19977;-78
2022/03/22 08:37:51;;;;;;;;;;;;;;;15.08;100.00;100292.06;5090622;28;19924;-78
2022/03/22 08:40:18;;;;;;;;;;;;;;;15.53;100.00;100290.56;5071883;28;20316;-76
2022/03/22 08:42:49;;;;;;;;;;;;;;;15.79;100.00;100290.53;5104864;28;19931;-77
2022/03/22 08:45:23;;;;;;;;;;;;;;;16.03;100.00;100278.00;5072064;28;19977;-76
2022/03/22 08:47:51;;;;;;;;;;;;;;;15.72;100.00;100293.44;5072790;28;19986;-75
2022/03/22 08:50:22;;;;;;;;;;;;;;;14.97;100.00;100282.97;5072525;28;19935;-75
2022/03/22 08:52:50;;;;;;;;;;;;;;;14.34;100.00;100285.38;5071747;28;19932;-75
2022/03/22 08:55:18;;;;;;;;;;;;;;;14.34;100.00;100293.06;5064929;28;19951;-75
2022/03/22 08:57:47;;;;;;;;;;;;;;;14.69;100.00;100294.63;5074553;28;19991;-75
2022/03/22 09:00:16;;;;;;;;;;;;;;;14.82;100.00;100293.63;5072162;28;19970;-76
2022/03/22 09:02:43;;;;;;;;;;;;;;;14.77;100.00;100302.53;5074388;28;20408;-75
2022/03/22 09:07:58;;;;;;;;;;;;;;;15.75;100.00;100295.41;5074313;28;20371;-75
2022/03/22 09:10:25;;;;;;;;;;;;;;;15.37;100.00;100296.84;5072841;28;19925;-75
2022/03/22 09:12:52;;;;;;;;;;;;;;;15.72;100.00;100296.25;5084242;28;19924;-74
2022/03/22 09:15:21;;;;;;;;;;;;;;;15.83;100.00;100296.06;5076947;28;19970;-75
2022/03/22 09:17:48;;;;;;;;;;;;;;;15.49;100.00;100295.47;5071761;28;19931;-75
2022/03/22 09:20:16;;;;;;;;;;;;;;;15.32;100.00;100300.13;5075070;28;19924;-75
2022/03/22 09:22:44;;;;;;;;;;;;;;;15.23;100.00;100291.41;5074376;28;19970;-75
2022/03/22 09:25:12;;;;;;;;;;;;;;;15.03;100.00;100284.88;5058865;28;19932;-76
2022/03/22 09:27:41;;;;;;;;;;;;;;;14.77;100.00;100290.50;5078823;28;19932;-76
2022/03/22 09:30:08;;;;;;;;;;;;;;;14.48;100.00;100300.53;5083353;28;19985;-76
2022/03/22 09:32:37;;;;;;;;;;;;;;;14.39;100.00;100303.81;5075611;28;19997;-76
2022/03/22 09:35:06;;;;;;;;;;;;;;;14.52;100.00;100302.06;5075103;28;19924;-76
2022/03/22 09:37:34;;;;;;;;;;;;;;;14.58;100.00;100300.38;5076826;28;19924;-76
2022/03/22 09:40:01;;;;;;;;;;;;;;;14.57;100.00;100298.00;5107526;27;20302;-76
2022/03/22 09:42:30;;;;;;;;;;;;;;;14.50;100.00;100290.44;5096382;28;19939;-76
2022/03/22 09:45:01;;;;;;;;;;;;;;;14.52;100.00;100300.03;5096330;28;20019;-76
2022/03/22 09:47:29;;;;;;;;;;;;;;;15.01;100.00;100294.97;5096282;28;20412;-76
2022/03/22 09:49:56;;;;;;;;;;;;;;;15.12;100.00;100295.59;5094971;28;19974;-76
2022/03/22 09:52:23;;;;;;;;;;;;;;;15.11;100.00;100297.66;5095042;28;19931;-76
2022/03/22 09:54:51;;;;;;;;;;;;;;;15.34;100.00;100296.88;5085072;28;20019;-76
2022/03/22 09:57:18;;;;;;;;;;;;;;;15.21;100.00;100291.03;5058340;28;19996;-75
2022/03/22 09:59:45;;;;;;;;;;;;;;;15.08;100.00;100290.03;5075620;28;19967;-75
2022/03/22 10:02:12;;;;;;;;;;;;;;;14.96;100.00;100292.63;5074666;28;20313;-75
2022/03/22 10:04:40;;;;;;;;;;;;;;;15.08;100.00;100284.41;5074432;28;19952;-75
2022/03/22 10:07:08;;;;;;;;;;;;;;;15.04;100.00;100292.09;5075619;28;19924;-76
2022/03/22 10:09:36;;;;;;;;;;;;;;;15.08;100.00;100284.41;5074693;28;19930;-76
2022/03/22 10:12:04;;;;;;;;;;;;;;;15.06;100.00;100292.47;5075605;28;20038;-77
2022/03/22 10:14:36;;;;;;;;;;;;;;;15.22;100.00;100295.44;5076878;28;19928;-75
2022/03/22 10:17:11;;;;;;;;;;;;;;;15.19;100.00;100287.84;5091737;28;19931;-75
2022/03/22 10:19:48;;;;;;;;;;;;;;;15.29;100.00;100288.91;5093740;28;19935;-76
2022/03/22 10:22:16;;;;;;;;;;;;;;;15.25;100.00;100288.19;5074361;28;19925;-76
2022/03/22 10:24:50;;;;;;;;;;;;;;;15.45;100.00;100289.88;5073541;28;19925;-76
2022/03/22 10:27:28;;;;;;;;;;;;;;;15.09;100.00;100288.81;5067834;28;19928;-76
2022/03/22 10:30:12;;;;;;;;;;;;;;;15.47;100.00;100284.63;5067880;28;19991;-76
2022/03/22 10:32:40;;;;;;;;;;;;;;;15.47;100.00;100290.25;5054082;28;20581;-76
2022/03/22 10:35:11;;;;;;;;;;;;;;;15.73;100.00;100280.97;5070401;28;20039;-77
2022/03/22 10:37:38;;;;;;;;;;;;;;;15.24;100.00;100292.19;5071907;28;20472;-78
2022/03/22 10:40:20;;;;;;;;;;;;;;;15.75;100.00;100292.59;5070419;28;20510;-78
2022/03/22 10:42:48;;;;;;;;;;;;;;;15.48;100.00;100299.53;5068054;28;19925;-77
2022/03/22 10:45:17;;;;;;;;;;;;;;;15.44;100.00;100288.28;5067080;28;19925;-78
2022/03/22 10:47:44;;;;;;;;;;;;;;;15.42;100.00;100287.16;5082620;28;20382;-79
2022/03/22 10:50:12;;;;;;;;;;;;;;;15.76;100.00;100287.75;5086731;28;19951;-78
2022/03/22 10:52:59;;;;;;;;;;;;;;;16.10;100.00;100286.31;5077426;28;19932;-77
2022/03/22 10:55:27;;;;;;;;;;;;;;;16.05;100.00;100289.63;5075582;28;19928;-77
2022/03/22 10:57:56;;;;;;;;;;;;;;;16.71;100.00;100289.53;5086169;28;19951;-77
2022/03/22 11:00:24;;;;;;;;;;;;;;;16.42;100.00;100287.72;5072445;28;19931;-79
2022/03/22 11:02:52;;;;;;;;;;;;;;;15.97;100.00;100287.38;5083558;28;19955;-78
2022/03/22 11:05:20;;;;;;;;;;;;;;;16.42;100.00;100282.06;5081463;28;20006;-77
2022/03/22 11:07:48;;;;;;;;;;;;;;;16.46;100.00;100282.81;5073111;28;19925;-78
2022/03/22 11:10:24;;;;;;;;;;;;;;;16.98;100.00;100267.53;5084192;28;19956;-77
2022/03/22 11:12:52;;;;;;;;;;;;;;;17.06;100.00;100271.81;5064478;28;20307;-80
2022/03/22 11:15:20;;;;;;;;;;;;;;;17.09;100.00;100270.13;5077177;28;19925;-82
2022/03/22 11:17:48;;;;;;;;;;;;;;;16.68;100.00;100272.66;5071517;28;20899;-78
2022/03/22 11:20:15;;;;;;;;;;;;;;;16.41;100.00;100269.19;5073898;28;20311;-79
2022/03/22 11:22:45;;;;;;;;;;;;;;;16.48;100.00;100271.91;5084416;28;19924;-77
2022/03/22 11:25:18;;;;;;;;;;;;;;;16.35;100.00;100274.53;5080054;28;20546;-75
2022/03/22 11:27:57;;;;;;;;;;;;;;;16.24;100.00;100271.94;5091393;28;19924;-81
2022/03/22 11:30:25;;;;;;;;;;;;;;;16.19;100.00;100275.25;5087218;28;19933;-76
2022/03/22 11:35:49;;;;;;;;;;;;;;;16.08;100.00;100276.69;5077198;28;19935;-78
2022/03/22 11:38:36;;;;;;;;;;;;;;;16.53;100.00;100265.72;5072484;28;19928;-76
2022/03/22 11:43:50;;;;;;;;;;;;;;;16.48;100.00;100269.88;5084862;28;19955;-76
2022/03/22 11:46:18;;;;;;;;;;;;;;;16.20;100.00;100265.59;5104586;27;19932;-75
2022/03/22 11:48:50;;;;;;;;;;;;;;;16.85;100.00;100261.00;5084087;28;19974;-76
2022/03/22 11:51:22;;;;;;;;;;;;;;;17.34;100.00;100250.56;5095821;28;20432;-76
2022/03/22 11:53:49;;;;;;;;;;;;;;;16.86;100.00;100261.78;5076081;28;19955;-75
2022/03/22 11:56:25;;;;;;;;;;;;;;;16.80;100.00;100263.53;5085889;28;19924;-76
2022/03/22 11:58:52;;;;;;;;;;;;;;;16.91;100.00;100261.28;5076208;28;19970;-76
2022/03/22 12:01:33;;;;;;;;;;;;;;;16.97;100.00;100257.50;5048403;28;20364;-76
2022/03/22 12:04:01;;;;;;;;;;;;;;;17.02;100.00;100265.47;5081086;28;19924;-77
2022/03/22 12:06:30;;;;;;;;;;;;;;;16.98;100.00;100249.84;5072203;28;19931;-77
2022/03/22 12:08:59;;;;;;;;;;;;;;;17.31;100.00;100248.63;5097696;28;20365;-77
2022/03/22 12:11:26;;;;;;;;;;;;;;;16.86;100.00;100253.31;5080410;28;19928;-76
2022/03/22 12:13:54;;;;;;;;;;;;;;;16.76;100.00;100257.19;5074975;28;19931;-76
2022/03/22 12:16:25;;;;;;;;;;;;;;;16.84;100.00;100255.78;5085823;28;19928;-76
2022/03/22 12:18:53;;;;;;;;;;;;;;;16.71;100.00;100257.69;5076093;28;20363;-76
2022/03/22 12:21:21;;;;;;;;;;;;;;;16.89;100.00;100258.88;5079455;28;19925;-76
2022/03/22 12:23:49;;;;;;;;;;;;;;;16.64;100.00;100263.50;5084416;28;20015;-76
2022/03/22 12:26:25;;;;;;;;;;;;;;;16.77;100.00;100261.56;5071928;28;19984;-75
2022/03/22 12:28:54;;;;;;;;;;;;;;;16.67;100.00;100256.97;5073247;28;20394;-78
2022/03/22 12:31:21;;;;;;;;;;;;;;;16.67;100.00;100254.16;5073663;28;19925;-78
2022/03/22 12:33:50;;;;;;;;;;;;;;;16.92;100.00;100257.22;5073348;28;19935;-78
2022/03/22 12:36:21;;;;;;;;;;;;;;;16.56;100.00;100245.91;5105074;28;19925;-78
2022/03/22 12:38:48;;;;;;;;;;;;;;;16.92;100.00;100245.94;5073521;28;19986;-78
2022/03/22 12:41:15;;;;;;;;;;;;;;;16.34;100.00;100250.41;5072993;28;19925;-77
2022/03/22 12:43:45;;;;;;;;;;;;;;;17.08;100.00;100243.13;5105961;28;19931;-78
2022/03/22 12:46:13;;;;;;;;;;;;;;;17.26;100.00;100240.69;5072259;28;19924;-78
2022/03/22 12:48:40;;;;;;;;;;;;;;;17.19;100.00;100246.50;5055553;28;20031;-77
2022/03/22 12:51:08;;;;;;;;;;;;;;;17.34;100.00;100242.09;5071936;28;19925;-77
2022/03/22 12:53:37;;;;;;;;;;;;;;;17.25;100.00;100244.75;5073261;28;20303;-77
2022/03/22 12:56:14;;;;;;;;;;;;;;;17.30;100.00;100236.53;5072777;28;19929;-77
2022/03/22 12:58:41;;;;;;;;;;;;;;;17.39;100.00;100235.91;5074187;28;20062;-77
2022/03/22 13:01:08;;;;;;;;;;;;;;;17.07;100.00;100238.72;5077049;28;20029;-77
2022/03/22 13:03:36;;;;;;;;;;;;;;;17.03;100.00;100235.19;5075693;28;20058;-77
2022/03/22 13:06:05;;;;;;;;;;;;;;;16.79;100.00;100231.72;5075790;28;19924;-77
2022/03/22 13:11:29;;;;;;;;;;;;;;;17.56;100.00;100226.22;5076680;28;20031;-77
2022/03/22 13:16:49;;;;;;;;;;;;;;;17.20;100.00;100220.66;5075367;28;19924;-77
2022/03/22 13:19:17;;;;;;;;;;;;;;;17.22;100.00;100214.56;5058905;28;19986;-77
2022/03/22 13:21:44;;;;;;;;;;;;;;;17.41;100.00;100210.84;5075669;28;20014;-77